createdAt,value
2023-05-24T00:01:34.595Z,11.50
2023-05-24T00:04:56.098Z,11.50
2023-05-24T00:08:17.581Z,11.40
2023-05-24T00:11:39.133Z,11.40
2023-05-24T00:15:00.544Z,11.40
2023-05-24T00:18:23.490Z,11.50
2023-05-24T00:21:45.657Z,11.50
2023-05-24T00:25:08.916Z,11.60
2023-05-24T00:28:31.202Z,11.40
2023-05-24T00:31:52.858Z,11.40
2023-05-24T00:35:15.817Z,11.50
2023-05-24T00:38:37.001Z,11.60
2023-05-24T00:41:58.324Z,11.50
2023-05-24T00:45:20.010Z,11.50
2023-05-24T00:48:41.773Z,11.50
2023-05-24T00:52:04.473Z,11.60
2023-05-24T00:55:25.995Z,11.60
2023-05-24T00:58:47.902Z,11.60
2023-05-24T01:02:09.399Z,11.70
2023-05-24T01:05:30.911Z,11.70
2023-05-24T01:09:13.030Z,11.70
2023-05-24T01:12:56.839Z,11.60
2023-05-24T01:16:23.571Z,11.70
2023-05-24T01:19:52.176Z,11.50
2023-05-24T01:23:29.731Z,11.60
2023-05-24T01:27:07.948Z,11.60
2023-05-24T01:30:29.648Z,11.60
2023-05-24T01:33:51.191Z,11.70
2023-05-24T01:37:12.628Z,11.70
2023-05-24T01:40:34.313Z,11.60
2023-05-24T01:44:05.564Z,11.60
2023-05-24T01:47:40.302Z,11.70
2023-05-24T01:51:04.913Z,11.70
2023-05-24T01:54:29.211Z,11.70
2023-05-24T01:57:52.356Z,11.70
2023-05-24T02:01:16.003Z,11.60
2023-05-24T02:04:37.832Z,11.70
2023-05-24T02:07:59.308Z,11.70
2023-05-24T02:11:21.009Z,11.70
2023-05-24T02:14:42.587Z,11.70
2023-05-24T02:18:07.991Z,11.70
2023-05-24T02:21:29.526Z,11.70
2023-05-24T02:24:50.697Z,11.60
2023-05-24T02:28:12.043Z,11.60
2023-05-24T02:31:33.599Z,11.70
2023-05-24T02:34:56.247Z,11.60
2023-05-24T02:38:17.739Z,11.70
2023-05-24T02:41:39.314Z,11.70
2023-05-24T02:45:00.973Z,11.70
2023-05-24T02:48:22.282Z,11.80
2023-05-24T02:51:45.705Z,11.80
2023-05-24T02:55:08.447Z,11.80
2023-05-24T02:58:30.336Z,11.70
2023-05-24T03:01:52.102Z,11.80
2023-05-24T03:05:13.515Z,11.80
2023-05-24T03:08:37.263Z,11.80
2023-05-24T03:11:58.377Z,11.80
2023-05-24T03:15:19.924Z,11.80
2023-05-24T03:18:41.735Z,11.80
2023-05-24T03:22:03.216Z,11.80
2023-05-24T03:25:27.308Z,11.80
2023-05-24T03:28:50.568Z,11.80
2023-05-24T03:32:11.909Z,11.80
2023-05-24T03:35:33.591Z,11.80
2023-05-24T03:38:57.998Z,11.80
2023-05-24T03:42:21.086Z,11.70
2023-05-24T03:45:42.800Z,11.70
2023-05-24T03:49:04.599Z,11.80
2023-05-24T03:52:26.153Z,11.70
2023-05-24T03:55:47.886Z,11.80
2023-05-24T03:59:10.689Z,11.80
2023-05-24T04:02:32.575Z,11.80
2023-05-24T04:05:55.341Z,11.80
2023-05-24T04:09:16.882Z,11.80
2023-05-24T04:12:39.666Z,11.80
2023-05-24T04:16:02.269Z,11.90
2023-05-24T04:19:23.348Z,11.80
2023-05-24T04:22:44.655Z,11.80
2023-05-24T04:26:07.441Z,11.80
2023-05-24T04:29:28.691Z,11.90
2023-05-24T04:32:51.613Z,11.90
2023-05-24T04:36:13.302Z,11.80
2023-05-24T04:39:34.684Z,11.80
2023-05-24T04:42:56.421Z,11.80
2023-05-24T04:46:17.833Z,11.60
2023-05-24T04:49:40.890Z,11.50
2023-05-24T04:53:02.160Z,11.60
2023-05-24T04:56:23.591Z,11.70
2023-05-24T04:59:45.404Z,11.60
2023-05-24T05:03:06.878Z,11.70
2023-05-24T05:06:29.747Z,11.60
2023-05-24T05:09:51.217Z,11.50
2023-05-24T05:13:12.416Z,11.50
2023-05-24T05:16:33.899Z,11.60
2023-05-24T05:19:55.602Z,11.50
2023-05-24T05:23:18.293Z,11.60
2023-05-24T05:26:39.763Z,11.70
2023-05-24T05:30:01.325Z,11.70
2023-05-24T05:33:22.781Z,11.60
2023-05-24T05:36:44.162Z,11.70
2023-05-24T05:40:07.838Z,11.80
2023-05-24T05:43:29.951Z,11.80
2023-05-24T05:46:51.412Z,11.80
2023-05-24T05:50:12.859Z,11.80
2023-05-24T05:53:34.755Z,11.80
2023-05-24T05:57:00.014Z,12.00
2023-05-24T06:00:23.654Z,12.00
2023-05-24T06:03:45.954Z,12.00
2023-05-24T06:07:07.245Z,11.90
2023-05-24T06:10:28.800Z,11.90
2023-05-24T06:13:51.681Z,11.90
2023-05-24T06:17:13.570Z,11.80
2023-05-24T06:20:34.838Z,11.90
2023-05-24T06:23:57.624Z,11.90
2023-05-24T06:27:21.115Z,12.00
2023-05-24T06:30:45.964Z,12.10
2023-05-24T06:34:08.762Z,12.10
2023-05-24T06:37:31.107Z,12.40
2023-05-24T06:40:52.531Z,12.50
2023-05-24T06:44:14.184Z,12.50
2023-05-24T06:47:37.227Z,12.60
2023-05-24T06:50:59.547Z,12.70
2023-05-24T06:54:21.556Z,13.00
2023-05-24T06:57:43.132Z,13.20
2023-05-24T07:01:05.403Z,13.30
2023-05-24T07:04:28.423Z,13.30
2023-05-24T07:07:50.063Z,13.30
2023-05-24T07:11:11.701Z,13.30
2023-05-24T07:14:33.272Z,13.40
2023-05-24T07:17:54.741Z,13.40
2023-05-24T07:21:17.487Z,13.40
2023-05-24T07:24:39.082Z,13.40
2023-05-24T07:28:01.024Z,13.40
2023-05-24T07:31:23.051Z,13.30
2023-05-24T07:34:44.830Z,13.30
2023-05-24T07:38:07.688Z,13.30
2023-05-24T07:41:29.360Z,13.30
2023-05-24T07:44:50.999Z,13.30
2023-05-24T07:48:12.618Z,13.30
2023-05-24T07:51:34.058Z,13.30
2023-05-24T07:54:57.128Z,13.30
2023-05-24T07:58:18.463Z,13.40
2023-05-24T08:01:39.969Z,13.50
2023-05-24T08:05:01.268Z,13.50
2023-05-24T08:08:22.584Z,13.70
2023-05-24T08:11:45.406Z,13.70
2023-05-24T08:15:08.404Z,13.70
2023-05-24T08:18:29.584Z,13.70
2023-05-24T08:21:51.229Z,13.80
2023-05-24T08:25:12.692Z,13.70
2023-05-24T08:28:35.520Z,13.60
2023-05-24T08:31:56.755Z,13.60
2023-05-24T08:35:21.644Z,13.50
2023-05-24T08:38:43.575Z,13.60
2023-05-24T08:42:09.729Z,13.60
2023-05-24T08:45:37.798Z,13.80
2023-05-24T08:49:00.664Z,13.80
2023-05-24T08:52:23.362Z,13.80
2023-05-24T08:55:45.266Z,13.90
2023-05-24T08:59:07.900Z,14.00
2023-05-24T09:02:32.248Z,14.00
2023-05-24T09:05:54.104Z,14.20
2023-05-24T09:09:17.847Z,14.50
2023-05-24T09:12:40.579Z,14.80
2023-05-24T09:16:02.845Z,15.00
2023-05-24T09:19:27.854Z,15.30
2023-05-24T09:22:54.077Z,15.40
2023-05-24T09:26:16.484Z,15.50
2023-05-24T09:29:37.916Z,15.50
2023-05-24T09:33:01.005Z,15.50
2023-05-24T09:36:23.994Z,15.60
2023-05-24T09:39:47.751Z,15.70
2023-05-24T09:43:10.573Z,15.60
2023-05-24T09:46:38.305Z,15.40
2023-05-24T09:50:00.983Z,15.30
2023-05-24T09:53:23.953Z,15.40
2023-05-24T09:56:48.124Z,15.40
2023-05-24T10:00:17.675Z,15.40
2023-05-24T10:03:39.676Z,15.30
2023-05-24T10:07:03.283Z,15.30
2023-05-24T10:10:27.864Z,15.50
2023-05-24T10:13:50.170Z,15.50
2023-05-24T10:17:11.970Z,15.40
2023-05-24T10:20:34.415Z,15.40
2023-05-24T10:24:00.730Z,15.50
2023-05-24T10:27:28.690Z,15.60
2023-05-24T10:31:02.676Z,15.90
2023-05-24T10:34:24.745Z,16.10
2023-05-24T10:37:47.710Z,16.20
2023-05-24T10:41:09.566Z,16.30
2023-05-24T10:44:32.306Z,16.30
2023-05-24T10:47:54.474Z,16.50
2023-05-24T10:51:36.765Z,16.60
2023-05-24T10:55:07.665Z,16.60
2023-05-24T10:58:46.052Z,16.50
2023-05-24T11:02:16.273Z,16.50
2023-05-24T11:05:51.753Z,16.40
2023-05-24T11:09:13.422Z,16.10
2023-05-24T11:12:38.798Z,16.20
2023-05-24T11:16:01.620Z,16.20
2023-05-24T11:19:25.901Z,16.30
2023-05-24T11:22:47.400Z,16.50
2023-05-24T11:26:09.981Z,16.50
2023-05-24T11:29:31.477Z,16.60
2023-05-24T11:32:53.447Z,16.80
2023-05-24T11:36:16.211Z,17.10
2023-05-24T11:39:39.113Z,17.20
2023-05-24T11:43:00.748Z,17.40
2023-05-24T11:46:22.169Z,17.20
2023-05-24T11:49:43.474Z,16.90
2023-05-24T11:53:06.690Z,16.80
2023-05-24T11:56:32.317Z,16.60
2023-05-24T11:59:55.318Z,16.70
2023-05-24T12:03:17.514Z,16.60
2023-05-24T12:06:41.149Z,16.40
2023-05-24T12:10:04.484Z,16.40
2023-05-24T12:13:28.403Z,16.40
2023-05-24T12:16:50.383Z,16.50
2023-05-24T12:20:13.139Z,16.70
2023-05-24T12:23:37.235Z,16.80
2023-05-24T12:27:03.020Z,16.80
2023-05-24T12:30:25.504Z,17.00
2023-05-24T12:33:46.920Z,17.20
2023-05-24T12:37:10.011Z,17.40
2023-05-24T12:40:34.453Z,17.40
2023-05-24T12:43:57.178Z,17.20
2023-05-24T12:47:18.672Z,17.10
2023-05-24T12:50:40.541Z,17.00
2023-05-24T12:54:04.796Z,16.90
2023-05-24T12:57:26.054Z,16.90
2023-05-24T13:00:50.421Z,16.90
2023-05-24T13:04:11.753Z,16.80
2023-05-24T13:07:33.362Z,17.00
2023-05-24T13:10:54.953Z,17.00
2023-05-24T13:14:16.770Z,17.10
2023-05-24T13:17:39.776Z,17.20
2023-05-24T13:21:01.232Z,17.20
2023-05-24T13:24:23.199Z,17.10
2023-05-24T13:27:44.719Z,17.10
2023-05-24T13:31:06.368Z,17.00
2023-05-24T13:34:29.606Z,16.90
2023-05-24T13:37:53.545Z,17.00
2023-05-24T13:41:15.155Z,17.00
2023-05-24T13:44:37.550Z,17.10
2023-05-24T13:48:03.789Z,17.10
2023-05-24T13:51:27.070Z,17.10
2023-05-24T13:54:48.416Z,17.40
2023-05-24T13:58:09.696Z,17.50
2023-05-24T14:01:31.887Z,17.80
2023-05-24T14:04:56.613Z,18.10
2023-05-24T14:08:25.389Z,18.30
2023-05-24T14:11:46.486Z,18.30
2023-05-24T14:15:09.160Z,18.30
2023-05-24T14:18:30.457Z,18.30
2023-05-24T14:21:51.792Z,18.30
2023-05-24T14:25:15.133Z,18.20
2023-05-24T14:28:36.486Z,18.20
2023-05-24T14:31:57.926Z,18.00
2023-05-24T14:35:19.353Z,18.00
2023-05-24T14:38:40.806Z,18.00
2023-05-24T14:42:03.313Z,17.70
2023-05-24T14:45:25.118Z,17.60
2023-05-24T14:48:46.412Z,17.70
2023-05-24T14:52:07.815Z,17.70
2023-05-24T14:55:29.384Z,17.80
2023-05-24T14:58:53.322Z,17.90
2023-05-24T15:02:16.079Z,17.90
2023-05-24T15:05:37.809Z,17.90
2023-05-24T15:08:59.402Z,18.00
2023-05-24T15:12:21.269Z,18.00
2023-05-24T15:15:44.368Z,17.80
2023-05-24T15:19:06.092Z,17.80
2023-05-24T15:22:27.624Z,17.90
2023-05-24T15:25:49.225Z,18.00
2023-05-24T15:29:11.085Z,18.20
2023-05-24T15:32:33.912Z,18.40
2023-05-24T15:35:56.535Z,18.40
2023-05-24T15:39:18.776Z,18.40
2023-05-24T15:42:40.242Z,18.40
2023-05-24T15:46:01.453Z,18.40
2023-05-24T15:49:25.514Z,18.30
2023-05-24T15:52:47.701Z,18.20
2023-05-24T15:56:09.853Z,18.20
2023-05-24T15:59:31.391Z,18.20
2023-05-24T16:02:53.508Z,18.10
2023-05-24T16:06:16.404Z,18.00
2023-05-24T16:09:38.134Z,18.00
2023-05-24T16:12:59.540Z,17.80
2023-05-24T16:16:23.351Z,17.60
2023-05-24T16:19:46.376Z,17.60
2023-05-24T16:23:09.086Z,17.60
2023-05-24T16:26:31.027Z,17.50
2023-05-24T16:29:52.068Z,17.50
2023-05-24T16:33:13.203Z,17.40
2023-05-24T16:36:34.574Z,17.40
2023-05-24T16:39:57.610Z,17.40
2023-05-24T16:43:19.000Z,17.40
2023-05-24T16:46:41.583Z,17.40
2023-05-24T16:50:03.863Z,17.50
2023-05-24T16:53:26.943Z,17.50
2023-05-24T16:56:49.656Z,17.50
2023-05-24T17:00:11.936Z,17.40
2023-05-24T17:03:34.351Z,17.30
2023-05-24T17:06:55.962Z,17.20
2023-05-24T17:10:17.443Z,17.20
2023-05-24T17:13:40.344Z,17.00
2023-05-24T17:17:01.924Z,17.20
2023-05-24T17:20:23.259Z,17.20
2023-05-24T17:23:44.778Z,17.20
2023-05-24T17:27:06.824Z,17.20
2023-05-24T17:30:30.368Z,17.00
2023-05-24T17:33:51.691Z,17.10
2023-05-24T17:37:12.941Z,17.00
2023-05-24T17:40:34.440Z,17.00
2023-05-24T17:43:55.962Z,16.90
2023-05-24T17:47:19.063Z,16.80
2023-05-24T17:50:40.718Z,16.70
2023-05-24T17:54:01.999Z,16.70
2023-05-24T17:57:23.662Z,16.50
2023-05-24T18:00:44.888Z,16.40
2023-05-24T18:04:08.475Z,16.40
2023-05-24T18:07:30.531Z,16.20
2023-05-24T18:10:52.135Z,16.20
2023-05-24T18:14:13.685Z,16.10
2023-05-24T18:17:35.000Z,15.90
2023-05-24T18:20:57.699Z,15.80
2023-05-24T18:24:19.262Z,15.60
2023-05-24T18:27:40.850Z,15.50
2023-05-24T18:31:02.412Z,15.50
2023-05-24T18:34:23.921Z,15.50
2023-05-24T18:37:46.825Z,15.40
2023-05-24T18:41:09.871Z,15.40
2023-05-24T18:44:31.436Z,15.20
2023-05-24T18:47:54.084Z,15.10
2023-05-24T18:51:15.811Z,15.10
2023-05-24T18:54:38.644Z,15.10
2023-05-24T18:57:59.837Z,14.90
2023-05-24T19:01:21.394Z,14.80
2023-05-24T19:04:47.870Z,14.80
2023-05-24T19:08:09.348Z,14.70
2023-05-24T19:11:31.959Z,14.60
2023-05-24T19:14:53.524Z,14.60
2023-05-24T19:18:14.649Z,14.40
2023-05-24T19:21:36.597Z,14.30
2023-05-24T19:24:57.815Z,14.30
2023-05-24T19:28:20.449Z,14.20
2023-05-24T19:31:42.082Z,14.10
2023-05-24T19:35:03.597Z,13.90
2023-05-24T19:38:25.101Z,13.80
2023-05-24T19:41:46.622Z,13.90
2023-05-24T19:45:10.554Z,13.90
2023-05-24T19:48:31.809Z,13.70
2023-05-24T19:51:53.312Z,13.60
2023-05-24T19:55:14.663Z,13.50
2023-05-24T19:58:36.419Z,13.40
2023-05-24T20:01:59.165Z,13.30
2023-05-24T20:05:20.941Z,13.30
2023-05-24T20:08:42.631Z,13.30
2023-05-24T20:12:04.514Z,13.20
2023-05-24T20:15:28.222Z,13.10
2023-05-24T20:18:50.768Z,13.10
2023-05-24T20:22:12.454Z,12.90
2023-05-24T20:25:33.957Z,12.80
2023-05-24T20:28:55.558Z,12.80
2023-05-24T20:32:17.253Z,12.80
2023-05-24T20:35:40.136Z,12.90
2023-05-24T20:39:01.471Z,12.80
2023-05-24T20:42:22.912Z,12.90
2023-05-24T20:45:44.913Z,12.80
2023-05-24T20:49:07.546Z,12.70
2023-05-24T20:52:30.847Z,12.80
2023-05-24T20:55:53.398Z,12.70
2023-05-24T20:59:15.378Z,12.70
2023-05-24T21:02:37.562Z,12.80
2023-05-24T21:05:59.288Z,12.80
2023-05-24T21:09:22.472Z,12.80
2023-05-24T21:12:44.316Z,12.70
2023-05-24T21:16:06.419Z,12.80
2023-05-24T21:19:28.002Z,12.80
2023-05-24T21:22:49.910Z,12.70
2023-05-24T21:26:12.609Z,12.70
2023-05-24T21:29:34.119Z,12.70
2023-05-24T21:32:55.559Z,12.80
2023-05-24T21:36:18.399Z,12.70
2023-05-24T21:39:39.875Z,12.70
2023-05-24T21:43:03.171Z,12.80
2023-05-24T21:46:24.762Z,12.90
2023-05-24T21:49:46.082Z,12.80
2023-05-24T21:53:07.691Z,12.70
2023-05-24T21:56:29.090Z,12.60
2023-05-24T21:59:52.032Z,12.70
2023-05-24T22:03:13.678Z,12.70
2023-05-24T22:06:36.311Z,12.70
2023-05-24T22:09:58.262Z,12.80
2023-05-24T22:13:19.390Z,12.60
2023-05-24T22:16:42.136Z,12.60
2023-05-24T22:20:05.949Z,12.60
2023-05-24T22:23:27.400Z,12.60
2023-05-24T22:26:49.847Z,12.50
2023-05-24T22:30:12.381Z,12.60
2023-05-24T22:33:34.886Z,12.60
2023-05-24T22:36:57.408Z,12.60
2023-05-24T22:40:19.144Z,12.50
2023-05-24T22:43:40.919Z,12.40
2023-05-24T22:47:03.149Z,12.40
2023-05-24T22:50:26.130Z,12.30
2023-05-24T22:53:47.895Z,12.40
2023-05-24T22:57:09.375Z,12.40
2023-05-24T23:00:31.170Z,12.40
2023-05-24T23:03:52.748Z,12.40
2023-05-24T23:07:15.669Z,12.30
2023-05-24T23:10:37.006Z,12.40
2023-05-24T23:13:59.514Z,12.40
2023-05-24T23:17:22.188Z,12.30
2023-05-24T23:20:44.489Z,12.30
2023-05-24T23:24:14.085Z,12.20
2023-05-24T23:27:35.464Z,12.20
2023-05-24T23:30:56.839Z,12.20
2023-05-24T23:34:18.326Z,12.20
2023-05-24T23:37:39.853Z,12.10
2023-05-24T23:41:02.624Z,12.10
2023-05-24T23:44:24.058Z,11.90
2023-05-24T23:47:45.675Z,11.90
2023-05-24T23:51:07.379Z,11.90
2023-05-24T23:54:28.885Z,11.90
2023-05-24T23:57:52.066Z,11.90
